CST,Max TemperatureF,Mean TemperatureF,Min TemperatureF,Max Dew PointF,MeanDew PointF,Min DewpointF,Max Humidity, Mean Humidity, Min Humidity, Max Sea Level PressureIn, Mean Sea Level PressureIn, Min Sea Level PressureIn, Max VisibilityMiles, Mean VisibilityMiles, Min VisibilityMiles, Max Wind SpeedMPH, Mean Wind SpeedMPH, Max Gust SpeedMPH,PrecipitationIn, CloudCover, Events, WindDirDegrees
2012-11-1,74,65,57,61,54,44,98,74,38,30.10,30.03,29.99,10,9,2,9,3,,0.00,1,,233
2012-11-2,76,66,56,67,59,55,100,95,68,30.11,30.05,30.01,10,6,0,12,1,,0.00,1,Fog,251
2012-11-3,80,69,58,68,62,58,100,96,63,30.15,30.10,30.06,10,3,0,13,1,,0.00,0,Fog,228
2012-11-4,77,67,60,70,64,59,100,96,61,30.14,30.09,30.05,10,3,0,10,1,,0.07,2,Fog-Rain-Thunderstorm,24
2012-11-5,69,62,54,63,55,47,94,77,47,30.09,30.00,29.91,10,10,8,13,6,24,0.03,5,Rain-Thunderstorm,93
2012-11-6,63,56,50,54,49,47,95,83,61,30.07,30.00,29.94,10,10,10,15,11,23,0.00,4,,357
2012-11-7,67,57,47,49,42,36,93,63,32,30.17,30.07,29.99,10,10,10,16,7,25,0.00,0,,336
2012-11-8,63,53,43,50,41,37,91,69,38,30.28,30.21,30.17,10,10,10,8,5,,0.00,0,,22
2012-11-9,70,56,43,57,51,40,100,80,53,30.30,30.24,30.22,10,9,6,9,4,,0.00,0,,81
2012-11-10,74,63,52,60,56,51,95,76,53,30.28,30.23,30.19,10,10,10,15,6,20,0.00,3,,95
2012-11-11,78,72,67,66,63,59,83,72,54,30.22,30.17,30.14,10,10,10,17,11,25,0.00,4,,132
2012-11-12,70,60,49,68,59,40,100,92,69,30.34,30.23,30.12,10,6,2,16,7,28,0.55,7,Rain-Thunderstorm,329
2012-11-13,59,50,41,39,33,29,75,55,34,30.38,30.32,30.26,10,10,10,23,13,29,0.00,0,,23
2012-11-14,64,52,41,40,36,33,72,56,33,30.32,30.26,30.21,10,10,10,10,8,,0.00,0,,5
2012-11-15,64,52,41,48,44,38,89,73,49,30.29,30.24,30.19,10,10,10,10,6,,0.00,0,,21
2012-11-16,65,54,43,52,48,43,95,84,49,30.31,30.28,30.22,10,7,4,10,4,,0.00,0,,46
2012-11-17,66,54,43,44,41,38,86,68,40,30.36,30.30,30.26,10,10,10,12,7,,0.00,0,,30
2012-11-18,68,56,43,49,41,38,82,63,42,30.33,30.29,30.25,10,10,10,12,7,,0.00,0,,35
2012-11-19,70,58,47,57,51,43,94,73,46,30.30,30.22,30.18,10,10,10,7,3,,0.00,0,,169
2012-11-20,71,60,49,55,49,47,91,73,42,30.22,30.17,30.11,10,10,10,9,2,,0.00,1,,343
2012-11-21,74,62,49,56,54,46,100,92,43,30.22,30.19,30.12,10,4,0,10,1,,0.00,0,Fog,318
2012-11-22,72,60,49,58,54,46,100,90,47,30.26,30.22,30.18,10,4,0,9,3,,0.00,0,Fog,36
2012-11-23,73,62,50,58,53,50,100,95,49,30.28,30.22,30.16,10,2,0,15,1,18,0.00,3,Fog,329
2012-11-24,60,52,41,43,36,32,77,55,36,30.30,30.23,30.19,10,10,10,13,9,17,0.00,0,,8
2012-11-25,60,48,35,54,40,30,95,72,39,30.24,30.17,30.12,10,9,4,7,3,,0.00,0,,105
2012-11-26,68,58,48,64,59,47,96,87,75,30.17,30.13,30.11,10,10,10,8,4,,0.01,4,Rain,140
2012-11-27,64,58,51,63,58,48,100,91,82,30.30,30.20,30.08,10,9,1,15,5,20,0.51,7,Rain,28
2012-11-28,61,52,42,49,42,35,100,78,38,30.43,30.36,30.29,10,10,10,15,9,18,0.00,5,,23
2012-11-29,64,52,39,49,43,34,88,71,53,30.38,30.32,30.27,10,10,10,10,7,,0.00,1,,77
2012-11-30,71,60,48,60,55,46,100,95,63,30.30,30.24,30.20,10,4,0,9,3,,0.00,0,Fog,87